Time;durP1;ratioP1;P1;durP2;ratioP2;P2;SDS_P1;SDS_P2;PMS_P1;PMS_P2;Temp;Humidity;BMP_temperature;BMP_pressure;BME280_temperature;BME280_humidity;BME280_pressure;Samples;Min_cycle;Max_cycle;Signal;HPM_P1;HPM_P2
2023/03/18 00:00:42;;;;;;;11.87;8.77;;;;;;;4.97;100.00;95922.72;5031799;27;103005;-63
2023/03/18 00:03:09;;;;;;;12.43;7.37;;;;;;;4.74;100.00;95923.47;5032414;28;101875;-63
2023/03/18 00:05:37;;;;;;;13.37;8.33;;;;;;;4.81;100.00;95928.63;5032741;27;102371;-63
2023/03/18 00:08:06;;;;;;;11.43;7.80;;;;;;;5.01;100.00;95937.03;5030549;28;105307;-63
2023/03/18 00:10:34;;;;;;;10.60;7.83;;;;;;;4.79;100.00;95928.03;5035941;28;101774;-63
2023/03/18 00:13:04;;;;;;;12.53;9.03;;;;;;;4.75;100.00;95935.59;5030206;28;105278;-63
2023/03/18 00:15:31;;;;;;;10.37;8.17;;;;;;;4.51;100.00;95933.13;5030975;28;101856;-63
2023/03/18 00:17:59;;;;;;;12.23;7.90;;;;;;;4.53;100.00;95942.41;5032454;27;101846;-63
2023/03/18 00:20:37;;;;;;;9.60;8.13;;;;;;;4.26;100.00;95940.34;5030340;28;105617;-63
2023/03/18 00:23:06;;;;;;;11.13;8.27;;;;;;;4.27;100.00;95947.22;5030736;28;101914;-63
2023/03/18 00:25:35;;;;;;;8.93;7.17;;;;;;;4.37;100.00;95950.91;5032533;27;102348;-63
2023/03/18 00:28:03;;;;;;;10.33;8.47;;;;;;;4.45;100.00;95944.53;5029776;28;105280;-63
2023/03/18 00:30:30;;;;;;;10.33;8.50;;;;;;;4.52;100.00;95942.63;5030743;28;101901;-63
2023/03/18 00:32:57;;;;;;;10.80;8.77;;;;;;;4.59;100.00;95946.75;5034685;27;102855;-63
2023/03/18 00:35:26;;;;;;;10.60;8.90;;;;;;;4.58;100.00;95949.66;5030707;28;101844;-63
2023/03/18 00:37:54;;;;;;;11.73;9.13;;;;;;;4.46;100.00;95948.78;5030820;28;105150;-63
2023/03/18 00:40:27;;;;;;;11.97;9.53;;;;;;;4.50;100.00;95947.31;5029596;28;105651;-63
2023/03/18 00:43:06;;;;;;;10.83;8.20;;;;;;;4.52;100.00;95950.50;5029650;28;101920;-63
2023/03/18 00:45:33;;;;;;;10.33;8.57;;;;;;;4.38;100.00;95946.47;5030625;28;106062;-63
2023/03/18 00:48:00;;;;;;;9.30;8.07;;;;;;;4.38;100.00;95954.34;5031034;27;103142;-63
2023/03/18 00:50:28;;;;;;;14.30;10.30;;;;;;;4.22;100.00;95949.69;5030572;28;102080;-63
2023/03/18 00:52:55;;;;;;;12.13;9.77;;;;;;;4.37;100.00;95950.13;5029363;28;104944;-63
2023/03/18 00:55:22;;;;;;;9.93;8.53;;;;;;;4.28;100.00;95956.72;5034076;28;101771;-63
2023/03/18 00:57:51;;;;;;;12.37;8.27;;;;;;;4.29;100.00;95950.41;5030371;28;105308;-63
2023/03/18 01:00:20;;;;;;;10.30;8.73;;;;;;;4.25;100.00;95954.53;5031178;28;103074;-63
2023/03/18 01:02:48;;;;;;;10.53;8.57;;;;;;;4.03;100.00;95950.72;5029977;28;101824;-63
2023/03/18 01:05:15;;;;;;;10.03;8.30;;;;;;;4.01;100.00;95944.91;5031044;27;102944;-63
2023/03/18 01:07:42;;;;;;;10.30;8.30;;;;;;;4.10;100.00;95952.25;5028976;28;105081;-63
2023/03/18 01:10:11;;;;;;;9.53;8.53;;;;;;;4.02;100.00;95943.88;5030111;28;101831;-63
2023/03/18 01:12:39;;;;;;;8.47;7.57;;;;;;;3.97;100.00;95948.97;5030132;28;105241;-63
2023/03/18 01:15:09;;;;;;;10.50;8.70;;;;;;;4.04;100.00;95949.72;5032703;28;105408;-63
2023/03/18 01:17:37;;;;;;;11.67;8.87;;;;;;;3.85;100.00;95954.19;5029826;28;105633;-63
2023/03/18 01:20:05;;;;;;;10.63;8.60;;;;;;;3.86;100.00;95947.09;5029362;28;105510;-63
2023/03/18 01:22:32;;;;;;;9.57;7.90;;;;;;;3.75;100.00;95950.44;5029876;28;101954;-63
2023/03/18 01:24:59;;;;;;;10.10;8.37;;;;;;;3.59;100.00;95951.00;5029682;28;105686;-63
2023/03/18 01:27:33;;;;;;;10.37;8.80;;;;;;;3.73;100.00;95960.38;5029338;28;104871;-63
2023/03/18 01:30:00;;;;;;;9.57;8.40;;;;;;;3.74;100.00;95954.09;5029920;28;102109;-63
2023/03/18 01:32:28;;;;;;;10.87;9.10;;;;;;;3.68;100.00;95949.72;5029766;28;104826;-63
2023/03/18 01:34:58;;;;;;;9.80;8.23;;;;;;;3.83;100.00;95950.16;5030507;27;102586;-63
2023/03/18 01:37:27;;;;;;;11.40;9.07;;;;;;;3.89;100.00;95957.19;5033050;28;102223;-63
2023/03/18 01:40:07;;;;;;;9.87;8.93;;;;;;;3.77;100.00;95957.09;5029010;28;103931;-63
2023/03/18 01:42:34;;;;;;;11.03;8.50;;;;;;;3.70;100.00;95948.47;5028989;28;101960;-63
2023/03/18 01:45:20;;;;;;;10.67;8.40;;;;;;;3.68;100.00;95952.34;5029764;28;103819;-63
2023/03/18 01:47:50;;;;;;;13.20;9.10;;;;;;;3.76;100.00;95950.22;5028767;28;104981;-63
2023/03/18 01:50:24;;;;;;;11.17;8.70;;;;;;;3.76;100.00;95949.44;5029320;28;101999;-63
2023/03/18 01:52:55;;;;;;;13.37;9.67;;;;;;;3.74;100.00;95948.84;5031064;27;102473;-63
2023/03/18 01:55:25;;;;;;;11.53;9.00;;;;;;;3.85;100.00;95954.19;5028844;28;105563;-63
2023/03/18 01:57:52;;;;;;;11.73;9.57;;;;;;;3.92;100.00;95957.53;5030958;27;101679;-63
2023/03/18 02:00:20;;;;;;;13.60;9.13;;;;;;;4.00;100.00;95965.16;5031908;28;105595;-64
2023/03/18 02:02:51;;;;;;;10.67;9.20;;;;;;;3.97;100.00;95949.78;5029153;28;101850;-63
2023/03/18 02:05:22;;;;;;;10.07;8.90;;;;;;;3.93;100.00;95961.00;5029376;28;105177;-63
2023/03/18 02:07:50;;;;;;;10.37;9.07;;;;;;;3.64;100.00;95961.69;5028703;28;105664;-63
2023/03/18 02:10:20;;;;;;;10.43;8.80;;;;;;;3.68;100.00;95958.41;5029062;28;101880;-63
2023/03/18 02:12:50;;;;;;;12.03;9.50;;;;;;;3.49;100.00;95956.78;5029011;28;104674;-63
2023/03/18 02:15:26;;;;;;;10.90;9.70;;;;;;;3.60;100.00;95961.31;5028502;28;105292;-63
2023/03/18 02:17:59;;;;;;;11.60;9.90;;;;;;;3.59;100.00;95964.16;5028857;27;101937;-63
2023/03/18 02:20:42;;;;;;;11.57;8.73;;;;;;;3.49;100.00;95969.13;5028882;28;105133;-63
2023/03/18 02:23:28;;;;;;;10.33;9.23;;;;;;;3.60;100.00;95965.78;5031769;28;103844;-63
2023/03/18 02:26:03;;;;;;;10.63;8.70;;;;;;;3.28;100.00;95967.69;5029235;28;105183;-63
2023/03/18 02:28:33;;;;;;;11.63;8.07;;;;;;;3.36;100.00;95977.13;5028221;28;105034;-63
2023/03/18 02:31:05;;;;;;;11.57;9.07;;;;;;;3.27;100.00;95976.59;5028900;28;102109;-63
2023/03/18 02:33:37;;;;;;;10.37;8.70;;;;;;;3.23;100.00;95985.13;5028673;28;104952;-63
2023/03/18 02:36:07;;;;;;;10.27;8.50;;;;;;;3.24;100.00;95989.34;5028291;28;105684;-63
2023/03/18 02:38:41;;;;;;;11.30;8.97;;;;;;;3.25;100.00;95993.56;5028850;28;101741;-63
2023/03/18 02:41:14;;;;;;;12.40;9.13;;;;;;;3.07;100.00;95991.69;5028790;28;104917;-63
2023/03/18 02:43:45;;;;;;;13.67;10.17;;;;;;;3.07;100.00;95993.53;5027172;28;105432;-63
2023/03/18 02:46:26;;;;;;;10.57;8.37;;;;;;;3.12;100.00;95988.44;5031209;28;101961;-63
2023/03/18 02:48:54;;;;;;;11.67;9.30;;;;;;;3.07;100.00;95998.78;5028119;28;104080;-63
2023/03/18 02:51:22;;;;;;;12.17;9.07;;;;;;;3.13;100.00;96003.19;5028690;28;101863;-63
2023/03/18 02:53:49;;;;;;;13.73;9.77;;;;;;;3.19;100.00;95995.25;5028423;28;105001;-63
2023/03/18 02:56:17;;;;;;;13.83;9.43;;;;;;;3.21;100.00;96002.91;5028049;28;105307;-63
2023/03/18 02:58:46;;;;;;;11.97;10.07;;;;;;;3.26;100.00;96016.19;5028342;28;101936;-63
2023/03/18 03:01:15;;;;;;;14.57;10.27;;;;;;;3.16;100.00;96013.28;5027583;28;104922;-63
2023/03/18 03:03:43;;;;;;;11.97;9.23;;;;;;;3.27;100.00;95994.19;5026865;28;105545;-63
2023/03/18 03:06:12;;;;;;;10.57;8.63;;;;;;;3.34;100.00;96019.38;5032142;28;101915;-63
2023/03/18 03:08:39;;;;;;;10.90;9.57;;;;;;;3.63;100.00;96017.91;5027816;28;104198;-63
2023/03/18 03:11:07;;;;;;;11.80;9.33;;;;;;;3.61;100.00;96017.34;5028151;28;101930;-63
2023/03/18 03:13:39;;;;;;;11.13;7.80;;;;;;;3.84;100.00;96025.41;5028308;28;105476;-63
2023/03/18 03:16:09;;;;;;;10.00;8.50;;;;;;;3.82;100.00;96024.84;5027796;28;102863;-63
2023/03/18 03:18:37;;;;;;;9.07;7.67;;;;;;;3.93;100.00;96024.13;5028319;28;101856;-63
2023/03/18 03:21:05;;;;;;;11.90;8.80;;;;;;;3.94;100.00;96028.34;5028248;28;106099;-63
2023/03/18 03:23:32;;;;;;;9.47;8.47;;;;;;;3.85;100.00;96027.81;5027379;28;105677;-63
2023/03/18 03:25:59;;;;;;;12.77;8.70;;;;;;;3.85;100.00;96027.00;5028317;28;101989;-63
2023/03/18 03:28:27;;;;;;;11.10;8.50;;;;;;;3.52;100.00;96037.84;5031040;27;104973;-63
2023/03/18 03:30:55;;;;;;;9.30;7.97;;;;;;;3.60;100.00;96036.75;5031363;28;101940;-63
2023/03/18 03:33:24;;;;;;;10.33;8.77;;;;;;;3.52;100.00;96032.59;5031392;28;105567;-63
2023/03/18 03:35:51;;;;;;;10.50;8.67;;;;;;;3.19;100.00;96046.97;5032603;27;102456;-63
2023/03/18 03:38:19;;;;;;;11.07;9.07;;;;;;;3.03;100.00;96047.50;5031607;28;101886;-63
2023/03/18 03:40:46;;;;;;;11.43;8.67;;;;;;;3.23;100.00;96042.91;5031661;28;105093;-63
2023/03/18 03:43:15;;;;;;;10.50;8.10;;;;;;;3.17;100.00;96059.53;5029830;28;105372;-63
2023/03/18 03:45:44;;;;;;;11.37;8.77;;;;;;;3.20;100.00;96061.72;5031490;28;103511;-63
2023/03/18 03:48:13;;;;;;;10.80;8.43;;;;;;;3.26;100.00;96035.41;5031393;28;105276;-63
2023/03/18 03:50:41;;;;;;;9.40;7.53;;;;;;;3.52;100.00;96063.31;5034202;28;105368;-63
2023/03/18 03:53:09;;;;;;;8.80;7.90;;;;;;;3.57;100.00;96068.72;5031076;28;105302;-63
2023/03/18 03:55:36;;;;;;;9.13;7.60;;;;;;;3.68;100.00;96068.03;5030728;28;105342;-63
2023/03/18 03:58:03;;;;;;;8.47;7.43;;;;;;;3.77;100.00;96069.38;5032640;27;101899;-63
2023/03/18 04:00:32;;;;;;;10.30;7.43;;;;;;;3.78;100.00;96073.59;5031091;28;104849;-63
2023/03/18 04:02:59;;;;;;;9.80;8.10;;;;;;;3.78;100.00;96068.34;5030544;28;105599;-63
2023/03/18 04:05:28;;;;;;;8.57;7.43;;;;;;;3.71;100.00;96075.50;5031269;28;102160;-63
2023/03/18 04:07:59;;;;;;;6.80;6.20;;;;;;;3.79;100.00;96064.69;5031193;28;105291;-63
2023/03/18 04:10:35;;;;;;;7.33;6.17;;;;;;;3.69;100.00;96077.53;5030125;28;105346;-63
2023/03/18 04:13:05;;;;;;;7.60;6.80;;;;;;;3.89;100.00;96062.38;5034564;28;101859;-63
2023/03/18 04:15:32;;;;;;;7.60;5.70;;;;;;;3.89;100.00;96065.84;5032030;27;102621;-63
2023/03/18 04:18:06;;;;;;;7.57;5.90;;;;;;;3.97;100.00;96062.09;5030977;28;101776;-63
2023/03/18 04:20:35;;;;;;;7.97;6.77;;;;;;;3.76;100.00;96071.19;5030917;28;105537;-63
2023/03/18 04:23:08;;;;;;;8.77;6.53;;;;;;;3.84;100.00;96067.50;5030261;28;104221;-63
2023/03/18 04:25:35;;;;;;;8.03;6.00;;;;;;;3.79;100.00;96059.44;5030575;28;101818;-63
2023/03/18 04:28:04;;;;;;;6.20;5.60;;;;;;;3.85;100.00;96075.16;5030872;28;104971;-63
2023/03/18 04:30:31;;;;;;;5.87;5.10;;;;;;;4.21;100.00;96063.88;5030240;28;105984;-63
2023/03/18 04:33:03;;;;;;;8.17;5.70;;;;;;;4.00;100.00;96069.56;5030359;28;101824;-63
2023/03/18 04:35:32;;;;;;;7.80;5.43;;;;;;;4.19;100.00;96060.66;5033564;28;104972;-63
2023/03/18 04:38:00;;;;;;;5.97;5.37;;;;;;;4.11;100.00;96061.78;5030591;28;102051;-63
2023/03/18 04:40:29;;;;;;;8.10;6.03;;;;;;;4.10;100.00;96065.41;5030431;27;105551;-63
2023/03/18 04:42:56;;;;;;;7.83;6.40;;;;;;;4.14;100.00;96061.31;5029214;28;105427;-63
2023/03/18 04:45:26;;;;;;;5.80;5.20;;;;;;;3.80;100.00;96072.38;5030477;28;101870;-63
2023/03/18 04:47:56;;;;;;;7.17;5.50;;;;;;;3.87;100.00;96073.13;5030698;28;104797;-63
2023/03/18 04:50:25;;;;;;;8.70;6.77;;;;;;;3.74;100.00;96081.13;5029878;28;105101;-63
2023/03/18 04:52:52;;;;;;;8.67;6.00;;;;;;;3.72;100.00;96077.09;5030383;28;101849;-63
2023/03/18 04:55:24;;;;;;;6.63;5.97;;;;;;;3.68;100.00;96081.19;5030104;28;105044;-63
2023/03/18 04:57:53;;;;;;;9.17;5.90;;;;;;;3.71;100.00;96078.13;5033253;28;104919;-63
2023/03/18 05:00:22;;;;;;;8.87;6.40;;;;;;;3.72;100.00;96079.72;5030440;28;105156;-63
2023/03/18 05:02:56;;;;;;;6.90;6.20;;;;;;;3.77;100.00;96077.25;5029471;28;105218;-63
2023/03/18 05:05:25;;;;;;;7.07;5.93;;;;;;;3.65;100.00;96079.00;5030049;28;101971;-63
2023/03/18 05:07:53;;;;;;;9.67;7.23;;;;;;;3.57;100.00;96073.97;5030008;28;105378;-63
2023/03/18 05:10:22;;;;;;;6.50;5.90;;;;;;;3.47;100.00;96077.09;5029434;28;104944;-63
2023/03/18 05:12:49;;;;;;;8.57;6.23;;;;;;;3.44;100.00;96080.13;5030060;28;101929;-63
2023/03/18 05:15:26;;;;;;;7.70;6.57;;;;;;;3.47;100.00;96079.72;5030158;28;104198;-63
2023/03/18 05:17:56;;;;;;;8.63;7.73;;;;;;;3.54;100.00;96074.41;5032853;28;105204;-63
2023/03/18 05:20:24;;;;;;;8.80;7.90;;;;;;;3.46;100.00;96069.41;5030050;28;104779;-63
2023/03/18 05:22:52;;;;;;;9.70;8.20;;;;;;;3.34;100.00;96060.63;5028905;28;105257;-63
2023/03/18 05:25:29;;;;;;;12.13;9.30;;;;;;;3.47;100.00;96065.78;5029899;28;101890;-63
2023/03/18 05:27:56;;;;;;;9.90;8.00;;;;;;;3.48;100.00;96064.75;5029815;28;104906;-63
2023/03/18 05:30:34;;;;;;;10.13;8.17;;;;;;;3.35;100.00;96072.75;5029101;28;104967;-63
2023/03/18 05:33:02;;;;;;;9.90;7.97;;;;;;;3.37;100.00;96076.75;5030923;27;101864;-63
2023/03/18 05:35:43;;;;;;;9.60;7.10;;;;;;;3.60;100.00;96073.56;5029555;28;105555;-63
2023/03/18 05:38:10;;;;;;;8.40;7.10;;;;;;;3.65;100.00;96079.00;5029002;28;105502;-63
2023/03/18 05:40:38;;;;;;;8.20;7.10;;;;;;;3.67;100.00;96082.19;5033099;28;102000;-63
2023/03/18 05:43:16;;;;;;;8.13;7.03;;;;;;;3.57;100.00;96073.97;5028397;28;105346;-63
2023/03/18 05:45:50;;;;;;;10.00;8.27;;;;;;;3.67;100.00;96079.56;5029649;28;102014;-63
2023/03/18 05:48:21;;;;;;;10.23;8.43;;;;;;;3.65;100.00;96086.88;5029373;28;104896;-63
2023/03/18 05:50:52;;;;;;;10.87;8.23;;;;;;;3.89;100.00;96086.88;5028990;28;105717;-63
2023/03/18 05:53:25;;;;;;;9.20;8.33;;;;;;;4.03;100.00;96082.25;5028773;27;102027;-63
2023/03/18 05:56:00;;;;;;;8.33;7.33;;;;;;;4.03;100.00;96084.91;5029356;28;105432;-63
2023/03/18 05:58:29;;;;;;;8.80;7.90;;;;;;;4.05;100.00;96075.75;5028618;28;104995;-63
2023/03/18 06:01:08;;;;;;;9.03;7.27;;;;;;;4.10;100.00;96083.81;5029235;28;102009;-63
2023/03/18 06:03:35;;;;;;;10.13;7.77;;;;;;;4.09;100.00;96082.22;5032109;28;105222;-63
2023/03/18 06:06:02;;;;;;;8.80;7.90;;;;;;;4.09;100.00;96076.16;5021347;27;101996;-63
2023/03/18 06:08:29;;;;;;;8.03;7.27;;;;;;;4.20;100.00;96076.22;5029137;28;105322;-63
2023/03/18 06:10:57;;;;;;;8.23;7.43;;;;;;;4.14;100.00;96084.22;5028623;28;105094;-63
2023/03/18 06:13:25;;;;;;;8.60;7.77;;;;;;;4.25;100.00;96076.38;5028979;28;101826;-63
2023/03/18 06:15:57;;;;;;;8.93;8.03;;;;;;;4.23;100.00;96077.63;5029119;28;104819;-63
2023/03/18 06:18:26;;;;;;;9.33;7.83;;;;;;;4.19;100.00;96076.44;5028394;28;105703;-63
2023/03/18 06:20:54;;;;;;;8.80;7.30;;;;;;;4.35;100.00;96081.94;5017981;28;101898;-63
2023/03/18 06:23:21;;;;;;;9.03;7.43;;;;;;;4.49;100.00;96079.97;5008880;28;104887;-63
2023/03/18 06:25:50;;;;;;;8.67;7.50;;;;;;;4.50;100.00;96089.47;5012635;28;105152;-63
2023/03/18 06:28:19;;;;;;;8.00;7.20;;;;;;;4.56;100.00;96078.06;5026164;28;104888;-63
2023/03/18 06:30:46;;;;;;;9.47;7.50;;;;;;;4.57;100.00;96077.84;5026470;28;105277;-63
2023/03/18 06:33:15;;;;;;;9.53;7.90;;;;;;;4.73;100.00;96077.25;5020739;28;101901;-63
2023/03/18 06:35:44;;;;;;;9.33;7.43;;;;;;;4.76;100.00;96076.78;5017229;28;104845;-63
2023/03/18 06:38:13;;;;;;;14.37;7.63;;;;;;;4.90;100.00;96082.69;5028208;28;105253;-63
2023/03/18 06:40:41;;;;;;;9.67;8.43;;;;;;;5.08;100.00;96082.69;5028750;28;101948;-63
2023/03/18 06:43:09;;;;;;;9.83;8.13;;;;;;;5.27;100.00;96084.22;5028214;28;104791;-63
2023/03/18 06:45:39;;;;;;;9.30;8.30;;;;;;;5.42;100.00;96087.25;5027940;28;105508;-63
2023/03/18 06:48:09;;;;;;;9.63;7.77;;;;;;;5.55;100.00;96087.03;5030961;28;102115;-63
2023/03/18 06:50:41;;;;;;;8.27;7.10;;;;;;;5.70;100.00;96084.78;5013688;28;105450;-63
2023/03/18 06:53:17;;;;;;;9.43;7.30;;;;;;;5.90;100.00;96082.66;5027301;28;102117;-63
2023/03/18 06:55:47;;;;;;;8.07;7.00;;;;;;;5.98;100.00;96083.13;5028425;28;105345;-63
2023/03/18 06:58:16;;;;;;;8.90;7.20;;;;;;;6.07;100.00;96080.97;5025307;28;103962;-63
2023/03/18 07:00:50;;;;;;;8.57;7.33;;;;;;;6.24;100.00;96082.69;5008518;28;101864;-63
2023/03/18 07:03:28;;;;;;;7.90;7.03;;;;;;;6.40;100.00;96081.16;5008700;28;105151;-63
2023/03/18 07:05:56;;;;;;;9.80;7.00;;;;;;;6.62;100.00;96095.38;5024099;28;105916;-63
2023/03/18 07:08:25;;;;;;;7.17;6.47;;;;;;;6.68;100.00;96086.50;5016980;27;101945;-63
2023/03/18 07:10:52;;;;;;;9.30;8.10;;;;;;;6.81;100.00;96091.56;5018094;28;105558;-63
2023/03/18 07:13:20;;;;;;;8.70;7.80;;;;;;;6.95;100.00;96092.88;5022182;28;101988;-63
2023/03/18 07:15:47;;;;;;;9.00;8.03;;;;;;;7.10;100.00;96086.03;5020405;28;105200;-63
2023/03/18 07:18:14;;;;;;;8.63;7.73;;;;;;;7.11;100.00;96087.66;5029786;28;102716;-63
2023/03/18 07:20:42;;;;;;;8.80;7.67;;;;;;;7.08;100.00;96085.47;5028514;28;102192;-63
2023/03/18 07:23:09;;;;;;;9.50;8.47;;;;;;;7.28;100.00;96087.69;5027967;28;105135;-63
2023/03/18 07:25:37;;;;;;;9.83;8.83;;;;;;;7.43;100.00;96087.97;5018157;28;105294;-63
2023/03/18 07:28:04;;;;;;;9.17;8.27;;;;;;;7.61;100.00;96090.41;5031646;28;101908;-63
2023/03/18 07:30:32;;;;;;;10.30;8.70;;;;;;;7.67;100.00;96092.09;5034511;28;105258;-63
2023/03/18 07:33:01;;;;;;;9.97;8.20;;;;;;;7.76;100.00;96086.19;5031500;28;101952;-63
2023/03/18 07:35:28;;;;;;;8.87;7.37;;;;;;;7.87;100.00;96084.50;5023590;28;105334;-63
2023/03/18 07:37:55;;;;;;;9.13;7.33;;;;;;;8.13;100.00;96097.09;5014730;27;102551;-63
2023/03/18 07:40:23;;;;;;;8.83;7.37;;;;;;;8.26;100.00;96091.47;5014711;28;101892;-63
2023/03/18 07:42:52;;;;;;;8.00;7.20;;;;;;;8.39;100.00;96093.81;5028141;28;101950;-63
2023/03/18 07:45:19;;;;;;;9.23;6.20;;;;;;;8.29;100.00;96093.66;5019066;28;105843;-62
2023/03/18 07:47:46;;;;;;;6.40;5.40;;;;;;;8.50;100.00;96088.38;5026858;28;102196;-68
2023/03/18 07:50:13;;;;;;;6.07;5.47;;;;;;;8.73;100.00;96090.81;5020132;28;105661;-64
2023/03/18 07:52:40;;;;;;;6.60;5.90;;;;;;;8.86;100.00;96092.31;5023742;27;102048;-63
2023/03/18 07:55:09;;;;;;;8.13;6.40;;;;;;;9.17;100.00;96086.31;5028203;28;102349;-64
2023/03/18 07:57:36;;;;;;;8.67;6.13;;;;;;;9.41;100.00;96095.59;5010115;28;105490;-64
2023/03/18 08:00:07;;;;;;;7.13;5.80;;;;;;;9.39;100.00;96089.75;5013275;28;101823;-63
2023/03/18 08:02:40;;;;;;;9.17;5.97;;;;;;;9.69;100.00;96090.84;5021095;27;102232;-63
2023/03/18 08:05:07;;;;;;;5.40;4.90;;;;;;;9.89;100.00;96090.22;5019756;28;105726;-63
2023/03/18 08:07:35;;;;;;;6.73;4.73;;;;;;;10.15;100.00;96081.44;5022731;28;102431;-63
2023/03/18 08:10:02;;;;;;;5.17;4.37;;;;;;;10.24;100.00;96090.53;5031031;27;102811;-64
2023/03/18 08:12:29;;;;;;;6.23;4.80;;;;;;;10.54;100.00;96078.25;5030824;27;102042;-64
2023/03/18 08:14:56;;;;;;;7.03;5.17;;;;;;;10.76;100.00;96089.53;5033112;27;101992;-64
2023/03/18 08:17:25;;;;;;;5.53;4.90;;;;;;;10.81;100.00;96083.41;5014611;28;105507;-64
2023/03/18 08:19:52;;;;;;;7.97;5.00;;;;;;;10.73;100.00;96079.41;5020768;28;101843;-64
2023/03/18 08:22:20;;;;;;;12.37;5.43;;;;;;;10.98;100.00;96089.34;5028423;28;104002;-64
2023/03/18 08:24:47;;;;;;;5.40;4.83;;;;;;;11.06;100.00;96089.66;5018610;28;105729;-64
2023/03/18 08:27:14;;;;;;;7.77;4.03;;;;;;;11.13;100.00;96092.09;5025704;28;101696;-64
2023/03/18 08:29:40;;;;;;;4.80;4.30;;;;;;;11.01;100.00;96091.50;5029797;28;105245;-64
2023/03/18 08:32:08;;;;;;;6.43;4.40;;;;;;;10.87;100.00;96091.19;5009575;28;105558;-64
2023/03/18 08:34:36;;;;;;;6.87;4.37;;;;;;;11.30;100.00;96095.34;5011705;28;102285;-64
2023/03/18 08:37:04;;;;;;;6.63;4.33;;;;;;;11.55;100.00;96090.09;5023880;28;102553;-64
2023/03/18 08:39:32;;;;;;;6.77;4.27;;;;;;;11.55;100.00;96088.19;5011400;28;101821;-64
2023/03/18 08:41:59;;;;;;;6.17;4.30;;;;;;;11.83;100.00;96084.28;5029357;28;102526;-64
2023/03/18 08:44:26;;;;;;;5.43;3.70;;;;;;;12.20;100.00;96090.16;5022746;28;105394;-64
2023/03/18 08:46:53;;;;;;;7.37;4.10;;;;;;;12.32;100.00;96088.03;5009928;28;101912;-64
2023/03/18 08:49:20;;;;;;;6.87;3.83;;;;;;;12.39;100.00;96088.56;5009707;28;105650;-64
2023/03/18 08:51:48;;;;;;;4.70;3.50;;;;;;;12.80;100.00;96090.88;5010234;28;105633;-64
2023/03/18 08:54:15;;;;;;;5.47;3.30;;;;;;;12.97;100.00;96086.03;5018091;28;102136;-64
2023/03/18 08:56:42;;;;;;;4.70;2.97;;;;;;;12.95;100.00;96085.50;5029285;28;105159;-64
2023/03/18 08:59:09;;;;;;;8.53;3.70;;;;;;;13.22;100.00;96083.28;5032948;27;103105;-63
2023/03/18 09:01:36;;;;;;;4.37;3.13;;;;;;;13.60;100.00;96076.41;5029498;28;104839;-63
2023/03/18 09:04:03;;;;;;;6.27;3.40;;;;;;;13.52;100.00;96077.78;5029318;28;105368;-63
2023/03/18 09:06:30;;;;;;;5.17;3.60;;;;;;;13.46;100.00;96067.41;5028109;28;101987;-63
2023/03/18 09:08:58;;;;;;;6.57;3.97;;;;;;;13.59;100.00;96064.13;5014727;28;104841;-63
2023/03/18 09:11:26;;;;;;;4.60;3.27;;;;;;;13.64;100.00;96064.91;5024393;28;103148;-63
2023/03/18 09:13:53;;;;;;;5.37;3.63;;;;;;;13.85;100.00;96071.69;5029698;28;101992;-63
2023/03/18 09:16:20;;;;;;;5.20;3.63;;;;;;;13.82;100.00;96071.44;5029411;28;105719;-63
2023/03/18 09:18:47;;;;;;;8.27;3.40;;;;;;;14.04;100.00;96071.81;5016052;28;105264;-63
2023/03/18 09:21:14;;;;;;;3.30;3.00;;;;;;;14.40;100.00;96065.13;5029877;28;102208;-63
2023/03/18 09:23:42;;;;;;;5.90;3.40;;;;;;;14.46;100.00;96066.69;5029375;28;104324;-63
2023/03/18 09:26:10;;;;;;;3.97;3.23;;;;;;;14.71;100.00;96063.75;5017098;28;101916;-63
2023/03/18 09:28:37;;;;;;;6.13;3.23;;;;;;;14.62;100.00;96068.94;5029282;28;105423;-63
2023/03/18 09:31:04;;;;;;;5.00;3.37;;;;;;;14.79;100.00;96063.94;5028857;27;102513;-63
2023/03/18 09:33:31;;;;;;;6.87;3.33;;;;;;;15.15;100.00;96058.97;5029540;28;102568;-63
2023/03/18 09:35:58;;;;;;;3.47;3.13;;;;;;;14.69;100.00;96060.56;5024369;28;105474;-63
2023/03/18 09:38:25;;;;;;;4.23;3.10;;;;;;;14.66;100.00;96058.47;5010463;28;102836;-63
2023/03/18 09:41:04;;;;;;;6.07;3.27;;;;;;;14.73;100.00;96058.91;5028813;28;102110;-63
2023/03/18 09:43:51;;;;;;;5.13;3.23;;;;;;;15.16;100.00;96060.56;5025392;28;105522;-63
2023/03/18 09:46:28;;;;;;;3.23;2.90;;;;;;;15.26;100.00;96053.19;5012020;28;101877;-63
2023/03/18 09:49:10;;;;;;;4.37;3.03;;;;;;;15.43;100.00;96053.53;5024960;28;101751;-63
2023/03/18 09:51:50;;;;;;;4.13;3.03;;;;;;;15.66;100.00;96049.19;5022755;28;105774;-63
2023/03/18 09:54:33;;;;;;;4.47;2.93;;;;;;;15.40;100.00;96045.25;5028498;28;102097;-63
2023/03/18 09:57:02;;;;;;;4.93;3.03;;;;;;;15.53;100.00;96053.38;5031462;28;102616;-63
2023/03/18 09:59:38;;;;;;;7.87;2.80;;;;;;;15.74;100.00;96048.53;5028562;28;105174;-62
2023/03/18 10:02:15;;;;;;;5.07;2.70;;;;;;;15.48;100.00;96058.81;5030882;28;101705;-64
2023/03/18 10:04:47;;;;;;;3.77;2.77;;;;;;;15.58;100.00;96047.19;5018239;27;101794;-63
2023/03/18 10:07:18;;;;;;;4.27;2.80;;;;;;;15.98;100.00;96051.94;5026132;28;102159;-64
2023/03/18 10:09:51;;;;;;;4.87;2.80;;;;;;;16.10;100.00;96054.94;5009212;28;104301;-63
2023/03/18 10:12:27;;;;;;;3.03;2.70;;;;;;;16.12;98.74;96053.56;5010681;28;102606;-63
2023/03/18 10:15:05;;;;;;;4.13;2.23;;;;;;;15.74;86.05;96059.25;5008846;28;101815;-63
2023/03/18 10:17:38;;;;;;;4.53;2.40;;;;;;;16.15;80.74;96058.38;5010665;28;102423;-63
2023/03/18 10:20:16;;;;;;;3.57;1.90;;;;;;;16.04;67.64;96067.66;5009261;28;105767;-63
2023/03/18 10:22:55;;;;;;;4.87;2.00;;;;;;;16.39;60.95;96064.41;5030364;27;101983;-64
2023/03/18 10:25:27;;;;;;;1.97;1.67;;;;;;;16.47;53.41;96066.41;5028792;28;105333;-63
2023/03/18 10:28:18;;;;;;;2.07;1.90;;;;;;;16.61;55.58;96063.75;5031569;28;105393;-63
2023/03/18 10:30:59;;;;;;;3.37;1.70;;;;;;;16.63;52.64;96065.06;5028021;28;105438;-63
2023/03/18 10:33:36;;;;;;;1.83;1.33;;;;;;;16.43;49.77;96070.81;5028408;28;105794;-63
2023/03/18 10:36:11;;;;;;;2.23;1.40;;;;;;;16.91;52.12;96065.91;5026795;28;101904;-63
2023/03/18 10:38:43;;;;;;;1.67;1.33;;;;;;;16.78;46.65;96061.34;5028339;28;105283;-63
2023/03/18 10:41:16;;;;;;;3.57;1.70;;;;;;;16.57;48.50;96060.09;5029522;28;103210;-63
2023/03/18 10:43:45;;;;;;;1.53;1.40;;;;;;;16.41;47.98;96056.09;5029102;27;101955;-63
2023/03/18 10:46:16;;;;;;;1.90;1.70;;;;;;;16.86;48.30;96055.25;5028221;28;105177;-63
2023/03/18 10:48:46;;;;;;;3.27;1.60;;;;;;;17.37;47.22;96045.06;5029489;27;102391;-63
2023/03/18 10:51:18;;;;;;;3.37;1.70;;;;;;;16.81;45.84;96044.59;5031819;28;101988;-63
2023/03/18 10:54:19;;;;;;;3.53;1.70;;;;;;;17.24;49.24;96040.53;5025976;28;101767;-63
2023/03/18 10:56:47;;;;;;;2.50;1.90;;;;;;;17.49;49.39;96042.72;5028180;27;102090;-63
2023/03/18 10:59:17;;;;;;;2.67;2.00;;;;;;;17.68;48.20;96029.91;5029607;28;102454;-63
2023/03/18 11:01:48;;;;;;;2.43;1.77;;;;;;;17.56;45.17;96029.66;5029530;27;101737;-63
2023/03/18 11:04:20;;;;;;;2.50;1.97;;;;;;;16.93;46.81;96034.16;5020896;27;101771;-63
2023/03/18 11:06:50;;;;;;;4.37;2.20;;;;;;;17.78;50.71;96022.44;5022145;28;102560;-63
2023/03/18 11:09:19;;;;;;;2.90;1.90;;;;;;;17.66;46.36;96026.75;5009278;28;102478;-63
2023/03/18 11:11:47;;;;;;;2.13;1.87;;;;;;;17.84;46.22;96023.09;5009480;28;101806;-63
2023/03/18 11:14:17;;;;;;;2.20;2.00;;;;;;;18.01;46.79;96020.53;5021490;28;102788;-63
2023/03/18 11:16:56;;;;;;;2.17;1.97;;;;;;;18.24;47.98;96019.41;5011750;28;101955;-63
2023/03/18 11:19:31;;;;;;;2.20;2.00;;;;;;;18.50;46.75;96012.31;5016009;28;105404;-63
2023/03/18 11:22:15;;;;;;;2.53;2.00;;;;;;;18.73;44.82;96006.59;5011940;27;103118;-63
2023/03/18 11:24:42;;;;;;;2.17;1.90;;;;;;;18.58;44.28;96003.50;5007889;28;101968;-63
2023/03/18 11:27:27;;;;;;;2.83;2.10;;;;;;;18.11;47.88;96004.16;5013093;28;102398;-63
2023/03/18 11:29:58;;;;;;;3.03;1.90;;;;;;;18.69;46.36;96000.22;5008831;28;102787;-63
2023/03/18 11:32:28;;;;;;;2.00;1.90;;;;;;;18.51;46.76;95997.75;5008752;28;102028;-63
2023/03/18 11:34:57;;;;;;;6.20;2.43;;;;;;;18.51;47.22;95997.75;5026467;28;105109;-63